Latest Coastal Weather Observations for Walpole North

IDW60701

Issued at 2:12 pm WST Tuesday 1 September 2015 (issued every 10 minutes, with the page automatically refreshed every 10 minutes)

About coastal observations | Map of coastal stations | Coastal observations for WA | Marine services | Other Formats
Station Details ID: 009998 Name: NORTH WALPOLE Lat: -34.95 Lon: 116.72 Height: 73.0 m
Data from the previous 72 hours. | See also: Recent months at Walpole North
Date/Time
WST
Temp

°C
Wind Pressure Rain
since 9am
mm
Weather Cloud Vis
km
Sea
Height
m
Swell
Dir
 
Speed
knots
Gust
knots
hPa Trend Height
m
Period
s
Dir
01/02:00pm 11.6 S 9 19 1022.8 - 0.0 - - - - - - -
01/01:30pm 11.9 S 8 15 1022.7 - 0.0 - - - - - - -
01/01:00pm 11.2 S 9 14 1022.8 - 0.0 - - - - - - -
01/12:30pm 11.9 S 11 19 1022.9 - 0.0 - - - - - - -
01/12:00pm 12.2 S 9 19 1022.7 - 0.0 - - - - - - -
01/11:30am 11.8 S 8 17 1022.7 - 0.0 - - - - - - -
01/11:00am 10.3 S 11 22 1022.8 - 0.0 - - - - - - -
01/10:30am 10.7 SSW 16 25 1022.8 - 0.0 - - - - - - -
01/10:13am 10.1 SSW 17 28 1022.7 - 0.0 - - - - - - -
01/10:00am 11.1 SSW 13 19 1022.4 - 0.0 - - - - - - -
01/09:30am 10.8 S 11 19 1022.0 - 0.0 - - - - - - -
01/09:02am 9.8 S 15 25 1021.8 - 0.0 - - - - - - -
01/09:00am 10.1 S 16 25 1021.6 - 17.8 - - - - - - -
01/08:57am 10.4 S 15 25 1021.7 - 17.8 - - - - - - -
01/08:30am 9.6 SSW 15 23 1021.3 - 17.8 - - - - - - -
01/08:00am 9.8 S 15 24 1021.1 - 17.8 - - - - - - -
01/07:33am 8.3 SSW 15 25 1020.8 - 17.8 - - - - - - -
01/07:30am 8.5 SSW 15 23 1020.8 - 17.8 - - - - - - -
01/07:00am 7.6 SSW 14 20 1020.4 - 17.8 - - - - - - -
01/06:31am 7.5 SSW 17 27 1020.0 - 17.8 - - - - - - -
01/06:30am 7.8 SSW 18 27 1020.2 - 17.8 - - - - - - -
01/06:12am 8.1 SSW 15 24 1019.7 - 17.8 - - - - - - -
01/06:00am 8.0 SW 9 14 1019.4 - 17.8 - - - - - - -
01/05:33am 7.6 SSW 15 25 1019.2 - 17.8 - - - - - - -
01/05:30am 7.6 SSW 12 25 1019.2 - 17.8 - - - - - - -
01/05:05am 7.4 SSW 15 28 1018.8 - 17.8 - - - - - - -
01/05:00am 7.6 SSW 13 28 1018.8 - 17.8 - - - - - - -
01/04:30am 8.1 SSW 13 23 1018.5 - 17.6 - - - - - - -
01/04:09am 8.3 SSW 15 25 1018.2 - 17.6 - - - - - - -
01/04:00am 8.3 SSW 11 19 1018.1 - 17.6 - - - - - - -
01/03:30am 7.6 SSW 13 21 1017.7 - 17.6 - - - - - - -
01/03:00am 7.6 SW 13 22 1017.7 - 17.6 - - - - - - -
01/02:30am 8.3 SSW 12 17 1017.5 - 17.6 - - - - - - -
01/02:00am 8.3 SSW 13 21 1017.8 - 17.6 - - - - - - -
01/01:33am 8.3 SSW 15 25 1017.5 - 17.6 - - - - - - -
01/01:30am 8.4 SSW 14 25 1017.5 - 17.6 - - - - - - -
01/01:00am 8.1 SSW 8 13 1017.4 - 17.6 - - - - - - -
01/12:30am 8.3 SW 11 19 1017.3 - 17.6 - - - - - - -
01/12:00am 8.3 SW 9 16 1016.9 - 17.6 - - - - - - -
 
Date/Time
WST
Temp

°C
Wind Pressure Rain
since 9am
mm
Weather Cloud Vis
km
Sea
Height
m
Swell
Dir
 
Speed
knots
Gust
knots
hPa Trend Height
m
Period
s
Dir
31/11:30pm 8.2 SSW 12 19 1017.0 - 17.6 - - - - - - -
31/11:00pm 7.5 SSW 12 19 1017.2 - 17.6 - - - - - - -
31/10:30pm 7.6 SSW 18 33 1017.1 - 17.6 - - - - - - -
31/10:23pm 8.3 SSW 15 26 1016.9 - 17.6 - - - - - - -
31/10:00pm 8.2 SSW 12 19 1016.7 - 17.6 - - - - - - -
31/09:30pm 7.7 SSW 12 19 1016.5 - 17.6 - - - - - - -
31/09:00pm 6.9 SW 14 22 1016.4 - 17.6 Rain - - - - - -
31/08:55pm 6.8 SW 15 29 1016.6 - 17.6 - - - - - - -
31/08:30pm 7.4 WSW 9 14 1016.7 - 17.0 - - - - - - -
31/08:00pm 7.5 SSW 12 19 1016.1 - 15.8 - - - - - - -
31/07:47pm 7.3 WSW 8 26 1016.0 - 15.4 - - - - - - -
31/07:30pm 6.6 W 7 11 1015.8 - 15.4 - - - - - - -
31/07:16pm 7.1 SW 15 27 1016.0 - 14.8 - - - - - - -
31/07:00pm 8.6 SW 12 20 1015.3 - 13.4 - - - - - - -
31/06:30pm 8.8 SW 11 20 1014.9 - 13.4 - - - - - - -
31/06:00pm 9.9 SW 8 14 1014.5 - 13.4 Rain - - - - - -
31/05:30pm 10.4 WSW 13 21 1014.2 - 13.2 - - - - - - -
31/05:00pm 10.7 WSW 12 19 1013.6 - 13.0 - - - - - - -
31/04:30pm 11.1 WSW 9 15 1013.3 - 13.0 - - - - - - -
31/04:00pm 10.9 SW 9 17 1013.3 - 13.0 - - - - - - -
31/03:30pm 10.3 SW 7 12 1013.2 - 13.0 - - - - - - -
31/03:00pm 9.9 SSW 8 13 1012.8 - 13.0 Recent precip. - - - - - -
31/02:30pm 9.0 WSW 7 11 1012.4 - 12.4 - - - - - - -
31/02:00pm 8.6 SW 11 21 1012.8 - 11.0 - - - - - - -
31/01:50pm 9.7 W 10 21 1013.1 - 9.0 - - - - - - -
31/01:30pm 11.5 W 5 8 1012.1 - 8.0 - - - - - - -
31/01:00pm 11.4 W 8 11 1012.4 - 7.6 - - - - - - -
31/12:30pm 11.5 W 5 8 1012.6 - 7.6 - - - - - - -
31/12:00pm 10.8 SW 3 6 1012.9 - 7.4 Recent precip. - - - - - -
31/11:30am 10.2 W 6 9 1013.8 - 6.2 - - - - - - -
31/11:00am 10.4 WNW 10 14 1013.5 - 1.8 - - - - - - -
31/10:30am 10.9 WNW 10 15 1013.5 - 0.8 - - - - - - -
31/10:00am 11.6 WNW 9 16 1013.6 - 0.2 - - - - - - -
31/09:30am 12.2 NW 13 19 1013.7 - 0.0 - - - - - - -
31/09:00am 12.2 NW 11 17 1013.9 - 0.2 - - - - - - -
31/08:30am 11.4 NNW 10 16 1014.1 - 0.2 - - - - - - -
31/08:00am 10.6 NNW 9 16 1014.2 - 0.2 - - - - - - -
31/07:30am 9.6 NNW 7 15 1014.3 - 0.2 - - - - - - -
31/07:00am 9.4 NW 9 14 1014.9 - 0.2 - - - - - - -
31/06:30am 9.1 N 8 13 1014.6 - 0.2 - - - - - - -
31/06:00am 9.2 N 8 13 1014.8 - 0.2 - - - - - - -
31/05:30am 9.4 N 7 11 1015.0 - 0.2 - - - - - - -
31/05:00am 9.5 N 7 11 1015.2 - 0.2 - - - - - - -
31/04:30am 9.8 NNW 8 12 1015.7 - 0.2 - - - - - - -
31/04:00am 10.0 NNW 7 14 1016.0 - 0.2 - - - - - - -
31/03:30am 9.8 NNW 6 10 1016.3 - 0.2 - - - - - - -
31/03:00am 9.7 N 7 11 1016.3 - 0.2 - - - - - - -
31/02:30am 9.4 NNW 6 10 1016.8 - 0.2 - - - - - - -
31/02:00am 8.7 CALM 0 0 1017.1 - 0.2 - - - - - - -
31/01:30am 9.7 NNW 4 7 1017.4 - 0.2 - - - - - - -
31/01:00am 9.2 NNW 3 6 1017.8 - 0.2 - - - - - - -
31/12:30am 8.3 NNW 4 6 1018.2 - 0.2 - - - - - - -
31/12:00am 9.3 NNW 7 8 1018.5 - 0.2 - - - - - - -
 
Date/Time
WST
Temp

°C
Wind Pressure Rain
since 9am
mm
Weather Cloud Vis
km
Sea
Height
m
Swell
Dir
 
Speed
knots
Gust
knots
hPa Trend Height
m
Period
s
Dir
30/11:30pm 8.8 NNW 5 7 1018.7 - 0.2 - - - - - - -
30/11:00pm 8.6 NNW 6 9 1019.1 - 0.2 - - - - - - -
30/10:30pm 7.2 CALM 0 0 1019.4 - 0.2 - - - - - - -
30/10:00pm 7.2 CALM 0 0 1019.6 - 0.2 - - - - - - -
30/09:30pm 7.4 CALM 0 0 1019.8 - 0.2 - - - - - - -
30/09:00pm 8.7 NNW 5 6 1020.0 - 0.2 - - - - - - -
30/08:30pm 8.8 NNW 5 7 1020.0 - 0.2 - - - - - - -
30/08:00pm 9.1 NW 5 6 1020.0 - 0.2 - - - - - - -
30/07:30pm 9.5 NW 3 5 1020.0 - 0.2 - - - - - - -
30/07:00pm 9.6 WNW 4 6 1019.8 - 0.2 - - - - - - -
30/06:30pm 10.0 WNW 5 6 1019.8 - 0.2 - - - - - - -
30/06:00pm 10.6 NW 5 7 1019.4 - 0.2 - - - - - - -
30/05:30pm 12.1 WNW 5 10 1019.1 - 0.2 - - - - - - -
30/05:00pm 13.4 WNW 3 6 1019.1 - 0.2 - - - - - - -
30/04:30pm 13.0 W 7 14 1019.1 - 0.2 - - - - - - -
30/04:00pm 13.6 W 7 13 1018.9 - 0.2 - - - - - - -
30/03:30pm 13.4 WSW 9 14 1018.7 - 0.2 - - - - - - -
30/03:00pm 14.7 WSW 9 19 1018.4 - 0.2 - - - - - - -
30/02:30pm 14.0 WSW 12 21 1018.3 - 0.2 - - - - - - -
30/02:00pm 15.1 WSW 10 16 1017.9 - 0.2 - - - - - - -
30/01:30pm 15.4 WSW 10 15 1017.8 - 0.2 - - - - - - -
30/01:00pm 14.3 W 9 15 1017.7 - 0.2 - - - - - - -
30/12:30pm 14.1 WSW 11 18 1018.0 - 0.0 - - - - - - -
30/12:00pm 14.4 WSW 12 19 1018.2 - 0.0 - - - - - - -
30/11:30am 14.3 WSW 11 16 1018.3 - 0.0 - - - - - - -
30/11:00am 13.4 W 9 14 1018.3 - 0.0 - - - - - - -
30/10:30am 13.6 WSW 11 18 1018.0 - 0.0 - - - - - - -
30/10:00am 14.1 W 10 17 1017.8 - 0.0 - - - - - - -
30/09:30am 13.7 WSW 10 16 1017.5 - 0.0 - - - - - - -
30/09:00am 13.1 WSW 9 14 1017.0 - 20.6 - - - - - - -
30/08:30am 12.0 W 8 13 1016.9 - 20.6 - - - - - - -
30/08:00am 11.4 W 6 10 1016.5 - 20.6 - - - - - - -
30/07:30am 10.0 WNW 7 11 1016.0 - 20.6 - - - - - - -
30/07:00am 9.5 W 5 8 1015.3 - 20.6 - - - - - - -
30/06:30am 9.7 W 7 10 1014.8 - 20.6 - - - - - - -
30/06:00am 9.7 W 6 10 1014.3 - 20.6 - - - - - - -
30/05:30am 9.9 WNW 7 11 1013.8 - 20.6 - - - - - - -
30/05:00am 10.0 NW 10 15 1013.4 - 20.6 - - - - - - -
30/04:30am 10.0 WNW 12 16 1013.0 - 20.4 - - - - - - -
30/04:00am 10.2 NW 9 13 1012.7 - 18.2 - - - - - - -
30/03:30am 10.5 WNW 7 14 1012.6 - 17.8 - - - - - - -
30/03:00am 10.5 WNW 9 17 1012.1 - 16.6 Recent precip. - - - - - -
30/02:30am 11.3 NW 9 14 1012.0 - 15.2 - - - - - - -
30/02:00am 11.4 WNW 9 15 1011.7 - 13.6 - - - - - - -
30/01:30am 12.1 WNW 7 9 1011.4 - 12.2 - - - - - - -
30/01:00am 12.3 NW 10 14 1011.0 - 11.6 - - - - - - -
30/12:30am 12.2 NW 10 14 1010.8 - 11.6 - - - - - - -
30/12:00am 12.4 NW 8 13 1010.7 - 11.6 - - - - - - -
 
Date/Time
WST
Temp

°C
Wind Pressure Rain
since 9am
mm
Weather Cloud Vis
km
Sea
Height
m
Swell
Dir
 
Speed
knots
Gust
knots
hPa Trend Height
m
Period
s
Dir
29/11:30pm 12.8 NNW 12 17 1010.6 - 11.6 - - - - - - -
29/11:00pm 13.1 NW 13 19 1010.8 - 11.6 - - - - - - -
29/10:30pm 12.9 NW 9 14 1010.5 - 11.6 - - - - - - -
29/10:00pm 13.0 NNW 9 15 1010.5 - 11.6 - - - - - - -
29/09:30pm 13.1 NNW 8 13 1010.8 - 11.6 - - - - - - -
29/09:00pm 12.7 NNW 9 15 1010.7 - 11.6 - - - - - - -
29/08:30pm 12.6 NW 8 11 1010.4 - 11.6 - - - - - - -
29/08:00pm 13.1 NW 10 17 1010.4 - 11.6 - - - - - - -
29/07:30pm 13.6 NW 11 19 1010.6 - 11.6 - - - - - - -
29/07:00pm 13.7 NW 8 10 1010.0 - 11.4 - - - - - - -
29/06:30pm 13.6 NW 6 8 1009.5 - 11.4 - - - - - - -
29/06:00pm 13.9 NW 7 9 1009.3 - 11.4 - - - - - - -
29/05:30pm 14.1 NW 9 13 1009.1 - 11.4 - - - - - - -
29/05:00pm 14.7 WNW 7 13 1008.8 - 11.4 - - - - - - -
29/04:30pm 14.9 W 6 10 1008.4 - 11.4 - - - - - - -
29/04:00pm 15.0 WNW 8 13 1008.1 - 11.4 - - - - - - -
29/03:30pm 14.7 WNW 11 16 1007.6 - 11.4 - - - - - - -
29/03:00pm 13.8 WNW 9 13 1006.6 - 10.2 Rain - - - - - -
29/02:30pm 13.9 WNW 11 17 1006.3 - 8.0 - - - - - - -

Other Formats:

Comma delimited format used in spreadsheet applications
http://www.bom.gov.au/fwo/IDW60701/IDW60701.95647.axf

JavaScript Object Notation format (JSON) in row-major order
http://www.bom.gov.au/fwo/IDW60701/IDW60701.95647.json